sensor_id;sensor_type;location;lat;lon;timestamp;P1;durP1;ratioP1;P2;durP2;ratioP2
55465;SDS011;41329;41.594;23.810;2022-10-22T00:02:10;22.50;;;19.77;;
55465;SDS011;41329;41.594;23.810;2022-10-22T00:04:39;22.10;;;20.00;;
55465;SDS011;41329;41.594;23.810;2022-10-22T00:07:05;21.83;;;19.97;;
55465;SDS011;41329;41.594;23.810;2022-10-22T00:09:30;21.47;;;19.37;;
55465;SDS011;41329;41.594;23.810;2022-10-22T00:11:56;23.60;;;21.40;;
55465;SDS011;41329;41.594;23.810;2022-10-22T00:14:21;26.50;;;23.03;;
55465;SDS011;41329;41.594;23.810;2022-10-22T00:16:47;25.30;;;22.83;;
55465;SDS011;41329;41.594;23.810;2022-10-22T00:19:12;27.23;;;22.63;;
55465;SDS011;41329;41.594;23.810;2022-10-22T00:21:38;24.80;;;22.17;;
55465;SDS011;41329;41.594;23.810;2022-10-22T00:24:04;23.90;;;21.70;;
55465;SDS011;41329;41.594;23.810;2022-10-22T00:26:29;24.63;;;22.43;;
55465;SDS011;41329;41.594;23.810;2022-10-22T00:28:55;21.97;;;19.97;;
55465;SDS011;41329;41.594;23.810;2022-10-22T00:31:20;22.57;;;20.30;;
55465;SDS011;41329;41.594;23.810;2022-10-22T00:33:46;21.60;;;19.13;;
55465;SDS011;41329;41.594;23.810;2022-10-22T00:36:12;21.17;;;19.00;;
55465;SDS011;41329;41.594;23.810;2022-10-22T00:38:38;22.70;;;19.73;;
55465;SDS011;41329;41.594;23.810;2022-10-22T00:41:05;21.30;;;19.23;;
55465;SDS011;41329;41.594;23.810;2022-10-22T00:43:30;20.43;;;18.67;;
55465;SDS011;41329;41.594;23.810;2022-10-22T00:45:56;18.80;;;17.27;;
55465;SDS011;41329;41.594;23.810;2022-10-22T00:48:25;22.67;;;18.43;;
55465;SDS011;41329;41.594;23.810;2022-10-22T00:50:58;18.53;;;17.43;;
55465;SDS011;41329;41.594;23.810;2022-10-22T00:53:33;18.17;;;16.70;;
55465;SDS011;41329;41.594;23.810;2022-10-22T00:56:00;18.23;;;16.83;;
55465;SDS011;41329;41.594;23.810;2022-10-22T00:58:27;18.87;;;17.57;;
55465;SDS011;41329;41.594;23.810;2022-10-22T01:00:55;17.90;;;16.53;;
55465;SDS011;41329;41.594;23.810;2022-10-22T01:03:21;17.13;;;15.80;;
55465;SDS011;41329;41.594;23.810;2022-10-22T01:05:57;17.30;;;16.07;;
55465;SDS011;41329;41.594;23.810;2022-10-22T01:08:30;17.47;;;16.20;;
55465;SDS011;41329;41.594;23.810;2022-10-22T01:11:07;16.63;;;15.30;;
55465;SDS011;41329;41.594;23.810;2022-10-22T01:16:21;18.00;;;16.70;;
55465;SDS011;41329;41.594;23.810;2022-10-22T01:21:50;19.10;;;17.20;;
55465;SDS011;41329;41.594;23.810;2022-10-22T01:24:30;18.87;;;17.43;;
55465;SDS011;41329;41.594;23.810;2022-10-22T01:27:28;18.43;;;17.23;;
55465;SDS011;41329;41.594;23.810;2022-10-22T01:29:59;19.50;;;17.87;;
55465;SDS011;41329;41.594;23.810;2022-10-22T01:32:29;20.13;;;18.43;;
55465;SDS011;41329;41.594;23.810;2022-10-22T01:35:09;20.37;;;18.63;;
55465;SDS011;41329;41.594;23.810;2022-10-22T01:37:44;19.10;;;17.80;;
55465;SDS011;41329;41.594;23.810;2022-10-22T01:40:16;32.20;;;29.03;;
55465;SDS011;41329;41.594;23.810;2022-10-22T01:43:00;24.00;;;21.73;;
55465;SDS011;41329;41.594;23.810;2022-10-22T01:45:29;21.90;;;20.07;;
55465;SDS011;41329;41.594;23.810;2022-10-22T01:51:06;19.20;;;17.63;;
55465;SDS011;41329;41.594;23.810;2022-10-22T01:54:10;17.17;;;15.90;;
55465;SDS011;41329;41.594;23.810;2022-10-22T02:05:48;17.77;;;16.50;;
55465;SDS011;41329;41.594;23.810;2022-10-22T02:08:21;20.50;;;18.60;;
55465;SDS011;41329;41.594;23.810;2022-10-22T02:10:49;19.17;;;17.57;;
55465;SDS011;41329;41.594;23.810;2022-10-22T02:13:17;20.50;;;18.83;;
55465;SDS011;41329;41.594;23.810;2022-10-22T02:15:49;21.97;;;19.60;;
55465;SDS011;41329;41.594;23.810;2022-10-22T02:18:17;20.17;;;18.30;;
55465;SDS011;41329;41.594;23.810;2022-10-22T02:20:46;20.07;;;18.37;;
55465;SDS011;41329;41.594;23.810;2022-10-22T02:23:12;19.03;;;17.50;;
55465;SDS011;41329;41.594;23.810;2022-10-22T02:25:39;18.60;;;17.37;;
55465;SDS011;41329;41.594;23.810;2022-10-22T02:31:09;21.47;;;19.47;;
55465;SDS011;41329;41.594;23.810;2022-10-22T02:33:44;22.33;;;20.17;;
55465;SDS011;41329;41.594;23.810;2022-10-22T02:36:14;38.93;;;23.03;;
55465;SDS011;41329;41.594;23.810;2022-10-22T02:38:41;32.50;;;19.80;;
55465;SDS011;41329;41.594;23.810;2022-10-22T02:41:08;47.80;;;21.93;;
55465;SDS011;41329;41.594;23.810;2022-10-22T02:43:39;34.10;;;22.27;;
55465;SDS011;41329;41.594;23.810;2022-10-22T02:46:06;22.77;;;20.53;;
55465;SDS011;41329;41.594;23.810;2022-10-22T02:48:33;23.57;;;20.50;;
55465;SDS011;41329;41.594;23.810;2022-10-22T02:50:58;25.07;;;20.20;;
55465;SDS011;41329;41.594;23.810;2022-10-22T02:53:23;26.20;;;21.67;;
55465;SDS011;41329;41.594;23.810;2022-10-22T02:55:49;28.10;;;21.50;;
55465;SDS011;41329;41.594;23.810;2022-10-22T02:58:14;31.30;;;23.07;;
55465;SDS011;41329;41.594;23.810;2022-10-22T03:00:40;31.43;;;22.93;;
55465;SDS011;41329;41.594;23.810;2022-10-22T03:03:05;28.17;;;23.23;;
55465;SDS011;41329;41.594;23.810;2022-10-22T03:05:30;27.17;;;23.47;;
55465;SDS011;41329;41.594;23.810;2022-10-22T03:07:56;39.43;;;26.17;;
55465;SDS011;41329;41.594;23.810;2022-10-22T03:10:21;41.37;;;27.40;;
55465;SDS011;41329;41.594;23.810;2022-10-22T03:12:47;37.87;;;26.60;;
55465;SDS011;41329;41.594;23.810;2022-10-22T03:15:12;46.40;;;29.00;;
55465;SDS011;41329;41.594;23.810;2022-10-22T03:17:38;57.30;;;31.57;;
55465;SDS011;41329;41.594;23.810;2022-10-22T03:20:03;51.83;;;30.10;;
55465;SDS011;41329;41.594;23.810;2022-10-22T03:22:29;51.47;;;28.97;;
55465;SDS011;41329;41.594;23.810;2022-10-22T03:24:57;48.23;;;29.70;;
55465;SDS011;41329;41.594;23.810;2022-10-22T03:27:27;49.05;;;28.35;;
55465;SDS011;41329;41.594;23.810;2022-10-22T03:29:53;24.20;;;21.73;;
55465;SDS011;41329;41.594;23.810;2022-10-22T03:32:20;23.17;;;20.67;;
55465;SDS011;41329;41.594;23.810;2022-10-22T03:34:46;24.70;;;21.23;;
55465;SDS011;41329;41.594;23.810;2022-10-22T03:37:11;22.23;;;19.97;;
55465;SDS011;41329;41.594;23.810;2022-10-22T03:39:37;25.60;;;20.57;;
55465;SDS011;41329;41.594;23.810;2022-10-22T03:42:03;24.63;;;21.50;;
55465;SDS011;41329;41.594;23.810;2022-10-22T03:44:30;52.77;;;32.57;;
55465;SDS011;41329;41.594;23.810;2022-10-22T03:46:57;128.23;;;30.27;;
55465;SDS011;41329;41.594;23.810;2022-10-22T03:49:22;46.10;;;27.40;;
55465;SDS011;41329;41.594;23.810;2022-10-22T03:51:48;51.43;;;29.37;;
55465;SDS011;41329;41.594;23.810;2022-10-22T03:54:14;56.60;;;28.33;;
55465;SDS011;41329;41.594;23.810;2022-10-22T03:56:40;42.03;;;27.73;;
55465;SDS011;41329;41.594;23.810;2022-10-22T03:59:05;48.23;;;29.23;;
55465;SDS011;41329;41.594;23.810;2022-10-22T04:01:31;46.77;;;29.03;;
55465;SDS011;41329;41.594;23.810;2022-10-22T04:03:56;47.67;;;29.27;;
55465;SDS011;41329;41.594;23.810;2022-10-22T04:06:23;44.80;;;28.30;;
55465;SDS011;41329;41.594;23.810;2022-10-22T04:08:49;53.00;;;30.20;;
55465;SDS011;41329;41.594;23.810;2022-10-22T04:11:15;34.30;;;22.37;;
55465;SDS011;41329;41.594;23.810;2022-10-22T04:13:41;79.57;;;23.47;;
55465;SDS011;41329;41.594;23.810;2022-10-22T04:18:37;29.03;;;20.47;;
55465;SDS011;41329;41.594;23.810;2022-10-22T04:21:03;35.93;;;21.57;;
55465;SDS011;41329;41.594;23.810;2022-10-22T04:23:29;22.20;;;19.93;;
55465;SDS011;41329;41.594;23.810;2022-10-22T04:25:58;31.20;;;20.47;;
55465;SDS011;41329;41.594;23.810;2022-10-22T04:28:24;27.70;;;19.95;;
55465;SDS011;41329;41.594;23.810;2022-10-22T04:30:50;26.80;;;21.37;;
55465;SDS011;41329;41.594;23.810;2022-10-22T04:33:15;33.87;;;22.83;;
55465;SDS011;41329;41.594;23.810;2022-10-22T04:35:41;35.27;;;25.60;;
55465;SDS011;41329;41.594;23.810;2022-10-22T04:38:06;52.23;;;28.33;;
55465;SDS011;41329;41.594;23.810;2022-10-22T04:40:32;48.43;;;30.77;;
55465;SDS011;41329;41.594;23.810;2022-10-22T04:42:57;49.20;;;30.97;;
55465;SDS011;41329;41.594;23.810;2022-10-22T04:45:23;59.47;;;32.37;;
55465;SDS011;41329;41.594;23.810;2022-10-22T04:47:48;47.03;;;31.70;;
55465;SDS011;41329;41.594;23.810;2022-10-22T04:50:14;43.53;;;29.97;;
55465;SDS011;41329;41.594;23.810;2022-10-22T04:52:39;38.87;;;29.30;;
55465;SDS011;41329;41.594;23.810;2022-10-22T04:55:05;64.47;;;27.90;;
55465;SDS011;41329;41.594;23.810;2022-10-22T04:57:31;72.07;;;28.20;;
55465;SDS011;41329;41.594;23.810;2022-10-22T04:59:56;62.97;;;27.53;;
55465;SDS011;41329;41.594;23.810;2022-10-22T05:02:22;32.20;;;25.07;;
55465;SDS011;41329;41.594;23.810;2022-10-22T05:04:47;26.50;;;22.57;;
55465;SDS011;41329;41.594;23.810;2022-10-22T05:07:13;33.03;;;24.80;;
55465;SDS011;41329;41.594;23.810;2022-10-22T05:09:38;89.93;;;30.53;;
55465;SDS011;41329;41.594;23.810;2022-10-22T05:12:04;81.57;;;32.43;;
55465;SDS011;41329;41.594;23.810;2022-10-22T05:14:30;88.97;;;28.60;;
55465;SDS011;41329;41.594;23.810;2022-10-22T05:16:56;44.03;;;26.40;;
55465;SDS011;41329;41.594;23.810;2022-10-22T05:19:22;55.00;;;29.67;;
55465;SDS011;41329;41.594;23.810;2022-10-22T05:21:50;54.27;;;27.00;;
55465;SDS011;41329;41.594;23.810;2022-10-22T05:24:20;28.15;;;22.65;;
55465;SDS011;41329;41.594;23.810;2022-10-22T05:26:47;28.97;;;22.03;;
55465;SDS011;41329;41.594;23.810;2022-10-22T05:29:17;34.80;;;19.73;;
55465;SDS011;41329;41.594;23.810;2022-10-22T05:31:43;22.63;;;20.17;;
55465;SDS011;41329;41.594;23.810;2022-10-22T05:34:08;24.67;;;19.17;;
55465;SDS011;41329;41.594;23.810;2022-10-22T05:36:34;20.43;;;18.53;;
55465;SDS011;41329;41.594;23.810;2022-10-22T05:39:00;33.23;;;21.50;;
55465;SDS011;41329;41.594;23.810;2022-10-22T05:41:26;53.67;;;25.20;;
55465;SDS011;41329;41.594;23.810;2022-10-22T05:43:56;38.33;;;21.33;;
55465;SDS011;41329;41.594;23.810;2022-10-22T05:46:24;50.00;;;27.43;;
55465;SDS011;41329;41.594;23.810;2022-10-22T05:49:00;34.20;;;24.23;;
55465;SDS011;41329;41.594;23.810;2022-10-22T05:51:27;55.43;;;24.63;;
55465;SDS011;41329;41.594;23.810;2022-10-22T05:53:58;45.20;;;24.17;;
55465;SDS011;41329;41.594;23.810;2022-10-22T05:56:26;44.37;;;23.50;;
55465;SDS011;41329;41.594;23.810;2022-10-22T05:58:52;29.00;;;23.40;;
55465;SDS011;41329;41.594;23.810;2022-10-22T06:01:19;57.37;;;27.33;;
55465;SDS011;41329;41.594;23.810;2022-10-22T06:03:46;53.77;;;25.40;;
55465;SDS011;41329;41.594;23.810;2022-10-22T06:06:19;87.17;;;31.30;;
55465;SDS011;41329;41.594;23.810;2022-10-22T06:08:46;115.10;;;32.43;;
55465;SDS011;41329;41.594;23.810;2022-10-22T06:11:13;91.47;;;33.13;;
55465;SDS011;41329;41.594;23.810;2022-10-22T06:13:41;65.10;;;34.57;;
55465;SDS011;41329;41.594;23.810;2022-10-22T06:16:07;93.00;;;36.53;;
55465;SDS011;41329;41.594;23.810;2022-10-22T06:18:33;78.13;;;38.20;;
55465;SDS011;41329;41.594;23.810;2022-10-22T06:21:09;75.47;;;36.77;;
55465;SDS011;41329;41.594;23.810;2022-10-22T06:23:36;68.00;;;35.60;;
55465;SDS011;41329;41.594;23.810;2022-10-22T06:26:02;87.07;;;47.10;;
55465;SDS011;41329;41.594;23.810;2022-10-22T06:28:28;95.43;;;53.33;;
55465;SDS011;41329;41.594;23.810;2022-10-22T06:30:55;70.07;;;39.50;;
55465;SDS011;41329;41.594;23.810;2022-10-22T06:33:22;40.97;;;27.57;;
55465;SDS011;41329;41.594;23.810;2022-10-22T06:35:47;44.30;;;29.20;;
55465;SDS011;41329;41.594;23.810;2022-10-22T06:38:13;48.00;;;32.43;;
55465;SDS011;41329;41.594;23.810;2022-10-22T06:40:39;34.50;;;25.70;;
55465;SDS011;41329;41.594;23.810;2022-10-22T06:43:07;28.40;;;23.23;;
55465;SDS011;41329;41.594;23.810;2022-10-22T06:45:33;25.90;;;23.30;;
55465;SDS011;41329;41.594;23.810;2022-10-22T06:47:59;27.27;;;23.63;;
55465;SDS011;41329;41.594;23.810;2022-10-22T06:50:24;28.20;;;25.07;;
55465;SDS011;41329;41.594;23.810;2022-10-22T06:52:50;36.10;;;26.33;;
55465;SDS011;41329;41.594;23.810;2022-10-22T06:55:15;36.77;;;28.80;;
55465;SDS011;41329;41.594;23.810;2022-10-22T06:57:41;52.70;;;35.20;;
55465;SDS011;41329;41.594;23.810;2022-10-22T07:00:06;34.63;;;26.53;;
55465;SDS011;41329;41.594;23.810;2022-10-22T07:02:32;31.07;;;26.07;;
55465;SDS011;41329;41.594;23.810;2022-10-22T07:04:58;35.57;;;28.50;;
55465;SDS011;41329;41.594;23.810;2022-10-22T07:07:23;61.20;;;39.77;;
55465;SDS011;41329;41.594;23.810;2022-10-22T07:09:49;93.00;;;49.23;;
55465;SDS011;41329;41.594;23.810;2022-10-22T07:12:15;260.73;;;119.07;;
55465;SDS011;41329;41.594;23.810;2022-10-22T07:14:41;383.47;;;185.13;;
55465;SDS011;41329;41.594;23.810;2022-10-22T07:17:07;274.03;;;127.60;;
55465;SDS011;41329;41.594;23.810;2022-10-22T07:19:33;227.63;;;109.27;;
55465;SDS011;41329;41.594;23.810;2022-10-22T07:21:58;32.20;;;24.00;;
55465;SDS011;41329;41.594;23.810;2022-10-22T07:24:24;23.33;;;21.17;;
55465;SDS011;41329;41.594;23.810;2022-10-22T07:26:49;26.27;;;23.63;;
55465;SDS011;41329;41.594;23.810;2022-10-22T07:29:15;25.63;;;22.93;;
55465;SDS011;41329;41.594;23.810;2022-10-22T07:31:41;22.87;;;20.93;;
55465;SDS011;41329;41.594;23.810;2022-10-22T07:34:06;28.33;;;23.97;;
55465;SDS011;41329;41.594;23.810;2022-10-22T07:36:32;22.67;;;20.67;;
55465;SDS011;41329;41.594;23.810;2022-10-22T07:38:58;24.87;;;22.23;;
55465;SDS011;41329;41.594;23.810;2022-10-22T07:41:24;19.50;;;18.10;;
55465;SDS011;41329;41.594;23.810;2022-10-22T07:43:51;20.10;;;18.50;;
55465;SDS011;41329;41.594;23.810;2022-10-22T07:46:16;19.83;;;18.20;;
55465;SDS011;41329;41.594;23.810;2022-10-22T07:48:42;18.47;;;17.27;;
55465;SDS011;41329;41.594;23.810;2022-10-22T07:51:08;18.67;;;17.27;;
55465;SDS011;41329;41.594;23.810;2022-10-22T07:53:33;18.13;;;16.43;;
55465;SDS011;41329;41.594;23.810;2022-10-22T07:55:59;18.03;;;16.63;;
55465;SDS011;41329;41.594;23.810;2022-10-22T07:58:24;18.80;;;17.13;;
55465;SDS011;41329;41.594;23.810;2022-10-22T08:00:50;19.30;;;17.33;;
55465;SDS011;41329;41.594;23.810;2022-10-22T08:03:19;17.43;;;15.97;;
55465;SDS011;41329;41.594;23.810;2022-10-22T08:05:45;19.13;;;17.57;;
55465;SDS011;41329;41.594;23.810;2022-10-22T08:08:12;18.40;;;17.13;;
55465;SDS011;41329;41.594;23.810;2022-10-22T08:10:39;18.93;;;17.50;;
55465;SDS011;41329;41.594;23.810;2022-10-22T08:13:05;27.73;;;20.20;;
55465;SDS011;41329;41.594;23.810;2022-10-22T08:15:31;19.63;;;17.90;;
55465;SDS011;41329;41.594;23.810;2022-10-22T08:17:56;16.90;;;15.90;;
55465;SDS011;41329;41.594;23.810;2022-10-22T08:20:21;18.60;;;16.87;;
55465;SDS011;41329;41.594;23.810;2022-10-22T08:22:47;21.20;;;19.40;;
55465;SDS011;41329;41.594;23.810;2022-10-22T08:25:13;22.73;;;20.47;;
55465;SDS011;41329;41.594;23.810;2022-10-22T08:27:39;22.87;;;20.80;;
55465;SDS011;41329;41.594;23.810;2022-10-22T08:30:05;21.07;;;19.23;;
55465;SDS011;41329;41.594;23.810;2022-10-22T08:32:31;20.60;;;18.43;;
55465;SDS011;41329;41.594;23.810;2022-10-22T08:34:57;19.43;;;17.33;;
55465;SDS011;41329;41.594;23.810;2022-10-22T08:37:22;19.17;;;17.17;;
55465;SDS011;41329;41.594;23.810;2022-10-22T08:39:48;19.33;;;17.13;;
55465;SDS011;41329;41.594;23.810;2022-10-22T08:42:26;16.77;;;15.27;;
55465;SDS011;41329;41.594;23.810;2022-10-22T08:50:18;14.37;;;13.37;;
55465;SDS011;41329;41.594;23.810;2022-10-22T08:52:49;14.17;;;13.27;;
55465;SDS011;41329;41.594;23.810;2022-10-22T08:55:19;14.10;;;13.30;;
55465;SDS011;41329;41.594;23.810;2022-10-22T09:06:22;13.27;;;12.40;;
55465;SDS011;41329;41.594;23.810;2022-10-22T09:08:50;14.07;;;12.80;;
55465;SDS011;41329;41.594;23.810;2022-10-22T09:11:27;13.52;;;12.73;;
55465;SDS011;41329;41.594;23.810;2022-10-22T09:13:56;13.68;;;12.77;;
55465;SDS011;41329;41.594;23.810;2022-10-22T09:24:27;13.77;;;12.85;;
55465;SDS011;41329;41.594;23.810;2022-10-22T09:27:01;12.90;;;12.20;;
55465;SDS011;41329;41.594;23.810;2022-10-22T09:29:34;12.48;;;11.77;;
55465;SDS011;41329;41.594;23.810;2022-10-22T09:31:59;13.60;;;12.77;;
55465;SDS011;41329;41.594;23.810;2022-10-22T09:34:24;13.35;;;12.50;;
55465;SDS011;41329;41.594;23.810;2022-10-22T09:37:24;12.98;;;12.07;;
55465;SDS011;41329;41.594;23.810;2022-10-22T09:39:44;13.25;;;12.30;;
55465;SDS011;41329;41.594;23.810;2022-10-22T09:42:16;11.68;;;10.80;;
55465;SDS011;41329;41.594;23.810;2022-10-22T09:44:43;13.20;;;12.45;;
55465;SDS011;41329;41.594;23.810;2022-10-22T09:52:42;11.35;;;10.55;;
55465;SDS011;41329;41.594;23.810;2022-10-22T09:55:14;11.02;;;10.32;;
55465;SDS011;41329;41.594;23.810;2022-10-22T09:57:42;10.80;;;9.98;;
55465;SDS011;41329;41.594;23.810;2022-10-22T10:00:08;11.85;;;11.02;;
55465;SDS011;41329;41.594;23.810;2022-10-22T10:02:38;11.80;;;10.77;;
55465;SDS011;41329;41.594;23.810;2022-10-22T10:05:05;11.40;;;10.60;;
55465;SDS011;41329;41.594;23.810;2022-10-22T10:07:31;11.27;;;10.63;;
55465;SDS011;41329;41.594;23.810;2022-10-22T10:09:59;10.75;;;9.95;;
55465;SDS011;41329;41.594;23.810;2022-10-22T10:12:34;10.18;;;9.57;;
55465;SDS011;41329;41.594;23.810;2022-10-22T10:15:13;10.05;;;9.20;;
55465;SDS011;41329;41.594;23.810;2022-10-22T10:17:43;10.00;;;9.30;;
55465;SDS011;41329;41.594;23.810;2022-10-22T10:25:54;11.30;;;10.15;;
55465;SDS011;41329;41.594;23.810;2022-10-22T10:33:50;9.93;;;9.38;;
55465;SDS011;41329;41.594;23.810;2022-10-22T10:36:20;10.32;;;9.63;;
55465;SDS011;41329;41.594;23.810;2022-10-22T10:41:46;9.70;;;8.90;;
55465;SDS011;41329;41.594;23.810;2022-10-22T10:53:13;9.35;;;8.75;;
55465;SDS011;41329;41.594;23.810;2022-10-22T11:07:09;7.72;;;7.32;;
55465;SDS011;41329;41.594;23.810;2022-10-22T11:09:49;7.82;;;7.30;;
55465;SDS011;41329;41.594;23.810;2022-10-22T11:12:28;7.47;;;7.00;;
55465;SDS011;41329;41.594;23.810;2022-10-22T11:15:08;16.90;;;8.00;;
55465;SDS011;41329;41.594;23.810;2022-10-22T11:17:55;12.07;;;8.43;;
55465;SDS011;41329;41.594;23.810;2022-10-22T11:20:29;13.55;;;12.55;;
55465;SDS011;41329;41.594;23.810;2022-10-22T11:23:16;8.68;;;8.15;;
55465;SDS011;41329;41.594;23.810;2022-10-22T11:25:48;8.18;;;7.75;;
55465;SDS011;41329;41.594;23.810;2022-10-22T11:28:17;8.55;;;8.05;;
55465;SDS011;41329;41.594;23.810;2022-10-22T11:30:50;8.68;;;8.05;;
55465;SDS011;41329;41.594;23.810;2022-10-22T11:33:23;8.98;;;8.43;;
55465;SDS011;41329;41.594;23.810;2022-10-22T11:35:53;10.23;;;9.48;;
55465;SDS011;41329;41.594;23.810;2022-10-22T11:38:22;9.00;;;8.40;;
55465;SDS011;41329;41.594;23.810;2022-10-22T11:43:28;8.82;;;8.23;;
55465;SDS011;41329;41.594;23.810;2022-10-22T11:48:41;7.53;;;7.03;;
55465;SDS011;41329;41.594;23.810;2022-10-22T11:57:14;6.50;;;6.10;;
55465;SDS011;41329;41.594;23.810;2022-10-22T11:59:52;6.68;;;6.28;;
55465;SDS011;41329;41.594;23.810;2022-10-22T12:02:22;6.00;;;5.60;;
55465;SDS011;41329;41.594;23.810;2022-10-22T12:05:31;6.78;;;6.38;;
55465;SDS011;41329;41.594;23.810;2022-10-22T12:08:02;7.20;;;6.60;;
55465;SDS011;41329;41.594;23.810;2022-10-22T12:10:55;6.90;;;6.22;;
55465;SDS011;41329;41.594;23.810;2022-10-22T12:13:26;6.15;;;5.80;;
55465;SDS011;41329;41.594;23.810;2022-10-22T12:15:55;6.47;;;6.07;;
55465;SDS011;41329;41.594;23.810;2022-10-22T12:18:29;6.20;;;5.72;;
55465;SDS011;41329;41.594;23.810;2022-10-22T12:20:59;5.95;;;5.60;;
55465;SDS011;41329;41.594;23.810;2022-10-22T12:23:29;6.10;;;5.70;;
55465;SDS011;41329;41.594;23.810;2022-10-22T12:25:56;6.65;;;6.28;;
55465;SDS011;41329;41.594;23.810;2022-10-22T12:28:22;6.43;;;5.90;;
55465;SDS011;41329;41.594;23.810;2022-10-22T12:30:47;6.55;;;6.07;;
55465;SDS011;41329;41.594;23.810;2022-10-22T12:33:30;5.78;;;5.38;;
55465;SDS011;41329;41.594;23.810;2022-10-22T12:35:56;5.75;;;5.45;;
55465;SDS011;41329;41.594;23.810;2022-10-22T12:38:28;5.70;;;5.30;;
55465;SDS011;41329;41.594;23.810;2022-10-22T12:40:54;6.25;;;5.65;;
55465;SDS011;41329;41.594;23.810;2022-10-22T12:43:28;6.78;;;5.80;;
55465;SDS011;41329;41.594;23.810;2022-10-22T12:45:54;5.22;;;4.82;;
55465;SDS011;41329;41.594;23.810;2022-10-22T12:48:31;5.22;;;4.93;;
55465;SDS011;41329;41.594;23.810;2022-10-22T12:51:01;5.35;;;5.05;;
55465;SDS011;41329;41.594;23.810;2022-10-22T12:53:32;6.30;;;5.55;;
55465;SDS011;41329;41.594;23.810;2022-10-22T12:56:03;5.63;;;5.32;;
55465;SDS011;41329;41.594;23.810;2022-10-22T12:58:36;5.80;;;5.50;;
55465;SDS011;41329;41.594;23.810;2022-10-22T13:01:04;5.35;;;5.05;;
55465;SDS011;41329;41.594;23.810;2022-10-22T13:03:34;5.55;;;5.25;;
55465;SDS011;41329;41.594;23.810;2022-10-22T13:09:36;6.15;;;5.65;;
55465;SDS011;41329;41.594;23.810;2022-10-22T13:12:04;5.75;;;5.28;;
55465;SDS011;41329;41.594;23.810;2022-10-22T13:19:40;6.90;;;6.30;;
55465;SDS011;41329;41.594;23.810;2022-10-22T13:22:26;7.13;;;6.70;;
55465;SDS011;41329;41.594;23.810;2022-10-22T13:24:53;7.07;;;6.47;;
55465;SDS011;41329;41.594;23.810;2022-10-22T13:27:24;6.88;;;6.47;;
55465;SDS011;41329;41.594;23.810;2022-10-22T13:29:51;8.25;;;7.63;;
55465;SDS011;41329;41.594;23.810;2022-10-22T13:32:21;6.57;;;6.07;;
55465;SDS011;41329;41.594;23.810;2022-10-22T13:34:54;7.20;;;5.85;;
55465;SDS011;41329;41.594;23.810;2022-10-22T13:37:21;6.55;;;6.05;;
55465;SDS011;41329;41.594;23.810;2022-10-22T13:39:46;7.20;;;5.82;;
55465;SDS011;41329;41.594;23.810;2022-10-22T13:42:12;5.30;;;5.00;;
55465;SDS011;41329;41.594;23.810;2022-10-22T13:44:37;5.20;;;4.90;;
55465;SDS011;41329;41.594;23.810;2022-10-22T13:47:03;5.78;;;5.32;;
55465;SDS011;41329;41.594;23.810;2022-10-22T13:49:39;6.60;;;6.18;;
55465;SDS011;41329;41.594;23.810;2022-10-22T13:52:08;15.35;;;7.25;;
55465;SDS011;41329;41.594;23.810;2022-10-22T13:54:40;5.35;;;4.95;;
55465;SDS011;41329;41.594;23.810;2022-10-22T13:57:08;9.10;;;6.22;;
55465;SDS011;41329;41.594;23.810;2022-10-22T13:59:34;5.70;;;5.40;;
55465;SDS011;41329;41.594;23.810;2022-10-22T14:02:00;5.10;;;4.65;;
55465;SDS011;41329;41.594;23.810;2022-10-22T14:04:30;6.05;;;5.55;;
55465;SDS011;41329;41.594;23.810;2022-10-22T14:07:07;5.22;;;4.93;;
55465;SDS011;41329;41.594;23.810;2022-10-22T14:09:37;5.97;;;5.65;;
55465;SDS011;41329;41.594;23.810;2022-10-22T14:12:08;5.63;;;5.22;;
55465;SDS011;41329;41.594;23.810;2022-10-22T14:14:35;7.40;;;5.53;;
55465;SDS011;41329;41.594;23.810;2022-10-22T14:17:02;5.53;;;5.00;;
55465;SDS011;41329;41.594;23.810;2022-10-22T14:19:28;5.70;;;5.20;;
55465;SDS011;41329;41.594;23.810;2022-10-22T14:21:54;6.55;;;5.15;;
55465;SDS011;41329;41.594;23.810;2022-10-22T14:24:19;5.80;;;5.40;;
55465;SDS011;41329;41.594;23.810;2022-10-22T14:26:45;5.72;;;5.28;;
55465;SDS011;41329;41.594;23.810;2022-10-22T14:29:11;5.03;;;4.78;;
55465;SDS011;41329;41.594;23.810;2022-10-22T14:31:40;5.95;;;5.53;;
55465;SDS011;41329;41.594;23.810;2022-10-22T14:34:09;6.78;;;6.28;;
55465;SDS011;41329;41.594;23.810;2022-10-22T14:36:37;5.93;;;5.43;;
55465;SDS011;41329;41.594;23.810;2022-10-22T14:39:02;6.15;;;5.47;;
55465;SDS011;41329;41.594;23.810;2022-10-22T14:41:28;5.93;;;5.47;;
55465;SDS011;41329;41.594;23.810;2022-10-22T14:43:54;5.70;;;5.10;;
55465;SDS011;41329;41.594;23.810;2022-10-22T14:46:20;6.50;;;5.90;;
55465;SDS011;41329;41.594;23.810;2022-10-22T14:48:46;5.72;;;5.28;;
55465;SDS011;41329;41.594;23.810;2022-10-22T14:51:12;7.55;;;6.15;;
55465;SDS011;41329;41.594;23.810;2022-10-22T14:53:39;11.20;;;8.95;;
55465;SDS011;41329;41.594;23.810;2022-10-22T14:56:06;16.02;;;14.48;;
55465;SDS011;41329;41.594;23.810;2022-10-22T14:58:34;13.73;;;12.57;;
55465;SDS011;41329;41.594;23.810;2022-10-22T15:01:00;14.65;;;13.45;;
55465;SDS011;41329;41.594;23.810;2022-10-22T15:03:26;47.75;;;27.02;;
55465;SDS011;41329;41.594;23.810;2022-10-22T15:05:52;45.72;;;33.47;;
55465;SDS011;41329;41.594;23.810;2022-10-22T15:08:18;20.65;;;17.13;;
55465;SDS011;41329;41.594;23.810;2022-10-22T15:10:45;12.50;;;10.10;;
55465;SDS011;41329;41.594;23.810;2022-10-22T15:13:10;11.82;;;10.65;;
55465;SDS011;41329;41.594;23.810;2022-10-22T15:15:38;15.23;;;11.38;;
55465;SDS011;41329;41.594;23.810;2022-10-22T15:18:05;11.75;;;10.73;;
55465;SDS011;41329;41.594;23.810;2022-10-22T15:20:30;15.30;;;11.68;;
55465;SDS011;41329;41.594;23.810;2022-10-22T15:22:56;15.05;;;11.38;;
55465;SDS011;41329;41.594;23.810;2022-10-22T15:25:21;10.32;;;9.52;;
55465;SDS011;41329;41.594;23.810;2022-10-22T15:27:47;201.98;;;19.48;;
55465;SDS011;41329;41.594;23.810;2022-10-22T15:30:12;39.95;;;11.27;;
55465;SDS011;41329;41.594;23.810;2022-10-22T15:32:38;174.43;;;19.17;;
55465;SDS011;41329;41.594;23.810;2022-10-22T15:35:04;64.07;;;10.45;;
55465;SDS011;41329;41.594;23.810;2022-10-22T15:37:30;13.55;;;7.93;;
55465;SDS011;41329;41.594;23.810;2022-10-22T15:39:55;8.63;;;7.53;;
55465;SDS011;41329;41.594;23.810;2022-10-22T15:42:21;8.55;;;7.47;;
55465;SDS011;41329;41.594;23.810;2022-10-22T15:44:47;9.00;;;8.00;;
55465;SDS011;41329;41.594;23.810;2022-10-22T15:47:13;14.18;;;8.20;;
55465;SDS011;41329;41.594;23.810;2022-10-22T15:49:38;8.32;;;7.63;;
55465;SDS011;41329;41.594;23.810;2022-10-22T15:52:06;19.40;;;8.15;;
55465;SDS011;41329;41.594;23.810;2022-10-22T15:54:33;16.90;;;7.80;;
55465;SDS011;41329;41.594;23.810;2022-10-22T15:56:59;8.57;;;7.72;;
55465;SDS011;41329;41.594;23.810;2022-10-22T15:59:32;9.70;;;7.30;;
55465;SDS011;41329;41.594;23.810;2022-10-22T16:01:57;7.88;;;7.30;;
55465;SDS011;41329;41.594;23.810;2022-10-22T16:04:23;8.02;;;7.38;;
55465;SDS011;41329;41.594;23.810;2022-10-22T16:06:49;9.18;;;8.25;;
55465;SDS011;41329;41.594;23.810;2022-10-22T16:09:22;8.07;;;7.47;;